Hovedside
METAR-TAF:

METAR-TAF

Lufthavner :

Uleåborg lufthavn

Uleåborg, Finland

breddegrad: 64-56N, lengdegrad: 025-22E, høyde over havet: 12 m

Gjeldene værobservasjon

Denne rapporten ble laget for 39 minutter siden, klokken 19:50 UTC
Vind 5 kt fra Øst-sørøst
Temperatur -4°C
Luftfuktighet 93%
Trykk 1030 hPa
Sikt 10 km eller mer
lett snø

METAR: EFOU 181950Z AUTO 11005KT 9999 -SN OVC050/// M04/M05 Q1030

Tid: 22:29 (20:29 UTC)

Varsel

Denne rapporten ble laget for 3 timer og 3 minutter siden, klokken 17:26 UTC
Varsel gyldig fra 18. klokken 18 UTC til 19. klokken 18 UTC
Vind 5 kt fra Øst-sørøst
Sikt 10 km eller mer
Brutte skyer i en høyde av 3500 ft
Midlertidig
fra 19. klokken 09 UTC til 19. klokken 18 UTC
Brutte skyer i en høyde av 500 ft

TAF: EFOU 181726Z 1818/1918 11005KT 9999 BKN035 TEMPO 1909/1918 BKN005

Værobservasjoner og værvarsel for over 4000 flyplasser (METAR- og TAF-rapporter).

Tilgjengelige stasjoner er representert av de røde og gule prikkene på kartet.

Hold musepekeren over prikken for å se navnet på stasjonen.

Klikk så for å se værobservasjoner og -varsler.

For å forandre kartet kan du klikke på den grønne knappen med svart kryss for å zoome inn, på den grønne knappen med strek for å zoome ut, eller på de grønne pilene for å se tilstøtende kart.


METAR-TAF: